Airfield :
LOGIN :

Register | Disclaimer

   EN    FR    IT 

 










Legend :    VFR   Marginal VFR   IFR   Intensive IFR   Very Intensive IFR
Visi :
Ceiling :
>= 8 km
>= 3000ft
5 to 8 km
1000 to 3000 ft
1500m to 5 km
500 to 1000 ft
800 to 1500m
200 to 500 ft
< 800m
< 200 ft
Symbols :   Thunderstorms  Fog  Heavy snow  Heavy precipitations  Wind > 20 kt
SIGMETs :     Misc.  Thunderstorms  Icing  Turbulence  Mountain Waves  Volcanic Ashes







- Airport Elevation : 1197 ft
- IATA code : SPM


ETAD - Spangdahlem Ab

CURRENT METAR :
  • 171703Z AUTO 24006KT 9999 SCT015 OVC025 19/16 A3006 RMK AO2 CIG 015V025 OVC V BKN SLP164 TSNO $

EXPIRED METARs :
  • 171658Z AUTO 23007KT 9999 BKN015 BKN023 19/16 A3006 RMK AO2 SLP164 T01860162 TSNO $
  • 171642Z AUTO 23010KT 9999 OVC014 19/16 A3006 RMK AO2 SLP164 TSNO $
  • 171558Z 23011KT 9999 OVC018 19/16 A3007 RMK AO2A RAB26E35 SLP167 P0000 T01910155 TSNO $
  • 171550Z 23010KT 9999 OVC019 19/16 A3007 RMK AO2A RAB26E35 SLP167 TSNO $
  • 171535Z 23012KT 9999 BKN020 OVC026 19/16 A3008 RMK AO2A RAB26E35 SLP169 TSNO $
  • 171508Z 24006KT 9999 OVC029 19/15 A3008 RMK AO2A SLP169 TSNO $
  • 171458Z 24009KT 9999 OVC029 19/15 A3008 RMK AO2A DZB39E49 OVC V BKN SLP169 P0000 60000 T01910153 50006 TSNO $
  • 171449Z 23011KT 9999 OVC031 19/15 A3007 RMK AO2A DZB39E49 SLP166 TSNO $
  • 171439Z 22017KT 9999 -DZ OVC033 20/15 A3007 RMK AO2A DZB39 SLP164 TSNO $

TAF AMD TAF ETAD
Valid from the 17 at 16:00 until the 18 at 17:00 UTC


171626Z 1716/1817 22012KT 8000 -SHRA BKN015 QNH3002INS
TEMPO 1716/1718 22012G18KT BKN010
BECMG 1718/1719 VRB06KT 9999 NSW BKN010 QNH2997INS
BECMG 1801/1802 VRB06KT 9999 BKN008 QNH2994INS
BECMG 1811/1812 27009KT 8000 -SHRA SCT008 BKN080 QNH2992INS TX24/1814Z TN14/1800Z
No reported NOTAMs for that airfield.



MET'MAP, your aeronautical weather chart ! - Copyright ORBIFLY December 2007 - Disclaimer

ORBIFLY MET'MAP TEAM :

Programming & Development : Alexandra Zaïnal
Concept & Development : Baudouin d'Aumeries
Co-Development & Prog : Marc-Olivier Méhu
Technical & hardware support : Manuel Goepfert

Contact : metmap@orbifly.com




SOURCES & CREDITS :

   NOAA